x

Ilm2 - 5 Miles Se Of Wrightsville Beach, Nc (41038) Weather Station

3:08pm - Thu 19th Jul 2018 All times are EDT. -4 hours from GMT.

  • Wind
    11mph, 16mph gusts
  • Sea Temp 83°f
  • Air Temp 81°f
  • Sea Pressure 1016.1mb
  • Ilm2 - 5 Miles Se Of Wrightsville Beach, Nc
  • Ilm2 - 5 Miles Se Of Wrightsville Beach, Nc

More Historic Weather Station data

Upgrade to MSW Pro to gain access to the past 30 days of data for over 8000 Wavebouys and Weather Stations around the globe.

Join

Comparision Forecast

View Surf forecast
   
Thu 07/19 3:08pm 11 16 mph 1016.1mb 83f 81f
2:08pm 11 16 mph 1016.5mb 83f 81f
1:08pm 13 18 mph 1016.8mb 83f 81f
12:08pm 16 20 mph 1016.6mb 83f 81f
11:08am 16 20 mph 1016.6mb 83f 81f
10:08am 18 22 mph 1016.2mb 83f 81f
9:08am 18 22 mph 1016.1mb 83f 80f
8:08am 18 25 mph 1015.2mb 83f 80f
7:08am 18 22 mph 1014.8mb 82f 80f
6:08am 16 20 mph 1014mb 83f 80f
5:08am 16 22 mph 1013.7mb 83f 80f
4:08am 16 20 mph 1013.3mb 83f 80f
3:08am 13 18 mph 1013.7mb 83f 80f
2:08am 16 20 mph 1013.7mb 83f 80f
1:08am 9 13 mph 1013.6mb 83f 80f
12:08am 9 11 mph 1013.4mb 83f 80f
Wed 07/18 11:08pm 7 9 mph 1013.6mb 83f 80f
10:08pm 4 9 mph 1013.6mb 83f 80f
9:08pm 4 7 mph 1012.5mb 83f 79f
8:08pm 2 4 mph 1012.2mb 83f 79f
7:08pm 2 4 mph 1012.2mb 83f 79f
6:08pm 4 7 mph 1011.8mb 83f 78f
4:08pm 7 18 mph 1012.1mb 84f 80f
3:08pm 2 4 mph 1012.1mb 83f 81f
1:08pm 2 7 mph 1012.6mb 83f 80f
12:08pm 4 7 mph 1013.1mb 83f 78f
11:08am 4 9 mph 1013.4mb 83f 78f
10:08am 11 16 mph 1012.6mb 83f 77f
9:08am 9 13 mph 1012.5mb 83f 77f
8:08am 11 16 mph 1012.6mb 83f 77f
7:08am 13 18 mph 1012mb 83f 78f
6:08am 16 20 mph 1011.2mb 83f 77f
5:08am 18 22 mph 1011.2mb 83f 77f
4:08am 18 25 mph 1011.4mb 83f 78f
3:08am 22 31 mph 1011.5mb 83f 80f
2:08am 22 29 mph 1011.8mb 83f 81f
1:08am 20 27 mph 1012.2mb 83f 81f
12:08am 11 16 mph 1012.7mb 83f 80f
Tue 07/17 11:08pm 13 18 mph 1013mb 83f 80f
9:08pm 22 27 mph 1012.4mb 83f 82f
8:08pm 27 36 mph 1012.4mb 83f 82f
7:08pm 25 34 mph 1012.2mb 83f 82f
6:08pm 25 34 mph 1012.4mb 83f 82f
5:08pm 22 29 mph 1013.1mb 83f 80f
4:08pm 25 29 mph 1013.3mb 83f 80f
3:08pm 25 31 mph 1013.8mb 83f 79f
2:08pm 22 29 mph 1013.9mb 83f 80f
1:08pm 25 31 mph 1015.2mb 83f 79f
12:08pm 25
mph
1015.3mb 83f 78f
11:08am 31 40 mph 1015.6mb 83f 76f
10:08am 20 27 mph 1015.3mb 83f 78f
9:08am 16 20 mph 1015.9mb 83f 80f
8:08am 16 18 mph 1015.5mb 83f 79f
7:08am 18 27 mph 1015.2mb 83f 80f
6:08am 11 13 mph 1014.8mb 83f 79f
5:08am 7 11 mph 1014.7mb 83f 77f
3:08am 16 20 mph 1015.4mb 83f 81f
2:08am 16 22 mph 1015.7mb 83f 81f
1:08am 16 20 mph 1015.9mb 83f 82f
12:08am 13 18 mph 1016mb 83f 81f
Mon 07/16 11:08pm 13 18 mph 1016.2mb 83f 81f
10:08pm 13 18 mph 1016.1mb 83f 80f
9:08pm 11 13 mph 1015.6mb 83f 81f
8:08pm 9 11 mph 1015.3mb 83f 81f
7:08pm 7 9 mph 1015.2mb 83f 81f
6:08pm 9 11 mph 1015.4mb 83f 81f
5:08pm 7 9 mph 1015.7mb 83f 82f
4:08pm 4 9 mph 1015.9mb 83f 81f
3:08pm 4 7 mph 1016.5mb 83f 81f
2:08pm 2 4 mph 1017mb 83f 81f
1:08pm 4 7 mph 1017.3mb 83f 81f
12:08pm 7 9 mph 1017.7mb 83f 80f
11:08am 7 9 mph 1017.4mb 83f 80f
10:08am 7 11 mph 1017.5mb 83f 79f
9:08am 4 9 mph 1017.5mb 83f 78f
8:08am 7 9 mph 1017.2mb 82f 77f
7:08am 7 9 mph 1017.1mb 82f 78f
6:08am 7 9 mph 1017.1mb 82f 78f
4:08am 11 13 mph 1016.5mb 83f 79f
3:08am 9 13 mph 1016.7mb 83f 80f
2:08am 11 16 mph 1016.9mb 83f 80f
1:08am 11 16 mph 1017mb 83f 80f
12:08am 13 16 mph 1017.1mb 83f 81f
Sun 07/15 11:08pm 16 20 mph 1016.9mb 83f 80f
10:08pm 13 18 mph 1016.8mb 83f 80f
9:08pm 13 16 mph 1016.5mb 83f 80f